createdAt,value
2023-03-03T00:04:31.684Z,100360.72
2023-03-03T00:09:34.829Z,100366.66
2023-03-03T00:14:38.016Z,100365.53
2023-03-03T00:19:42.331Z,100360.38
2023-03-03T00:24:45.271Z,100369.50
2023-03-03T00:29:55.632Z,100361.09
2023-03-03T00:35:26.263Z,100358.94
2023-03-03T00:40:40.666Z,100355.88
2023-03-03T00:45:53.217Z,100356.25
2023-03-03T00:51:01.580Z,100346.28
2023-03-03T00:56:04.892Z,100345.09
2023-03-03T01:01:08.098Z,100344.53
2023-03-03T01:06:12.612Z,100338.00
2023-03-03T01:11:25.958Z,100335.69
2023-03-03T01:16:29.289Z,100328.97
2023-03-03T01:21:32.373Z,100318.06
2023-03-03T01:26:35.459Z,100326.00
2023-03-03T01:31:38.727Z,100318.59
2023-03-03T01:36:41.772Z,100312.91
2023-03-03T01:41:44.660Z,100316.00
2023-03-03T01:47:13.252Z,100311.25
2023-03-03T01:52:47.231Z,100316.06
2023-03-03T01:58:01.344Z,100306.00
2023-03-03T02:03:05.881Z,100304.31
2023-03-03T02:08:12.523Z,100312.34
2023-03-03T02:13:15.635Z,100303.84
2023-03-03T02:18:21.065Z,100301.44
2023-03-03T02:23:46.450Z,100301.50
2023-03-03T02:28:50.484Z,100290.22
2023-03-03T02:33:55.505Z,100295.44
2023-03-03T02:39:13.800Z,100297.31
2023-03-03T02:44:20.676Z,100294.88
2023-03-03T02:49:34.240Z,100284.75
2023-03-03T02:54:38.031Z,100285.84
2023-03-03T02:59:40.966Z,100279.03
2023-03-03T03:04:43.867Z,100280.97
2023-03-03T03:09:46.679Z,100282.91
2023-03-03T03:14:49.893Z,100278.72
2023-03-03T03:19:52.863Z,100269.50
2023-03-03T03:24:55.980Z,100264.28
2023-03-03T03:29:58.894Z,100268.66
2023-03-03T03:35:02.278Z,100266.91
2023-03-03T03:40:06.259Z,100261.78
2023-03-03T03:45:09.956Z,100251.25
2023-03-03T03:50:13.314Z,100255.53
2023-03-03T03:55:16.444Z,100256.22
2023-03-03T04:00:19.754Z,100255.00
2023-03-03T04:05:23.249Z,100245.22
2023-03-03T04:10:26.384Z,100250.28
2023-03-03T04:15:30.348Z,100251.84
2023-03-03T04:20:33.450Z,100253.53
2023-03-03T04:25:36.923Z,100252.41
2023-03-03T04:30:40.531Z,100248.25
2023-03-03T04:35:43.481Z,100249.59
2023-03-03T04:40:46.559Z,100256.22
2023-03-03T04:45:49.555Z,100248.06
2023-03-03T04:50:52.689Z,100241.66
2023-03-03T04:55:55.728Z,100246.38
2023-03-03T05:00:59.103Z,100240.66
2023-03-03T05:06:02.111Z,100239.44
2023-03-03T05:11:05.398Z,100242.97
2023-03-03T05:16:09.073Z,100239.69
2023-03-03T05:21:12.660Z,100245.81
2023-03-03T05:26:15.664Z,100238.00
2023-03-03T05:31:18.727Z,100239.63
2023-03-03T05:36:22.320Z,100244.53
2023-03-03T05:41:25.463Z,100247.81
2023-03-03T05:46:28.798Z,100258.97
2023-03-03T05:51:31.989Z,100254.53
2023-03-03T05:56:35.132Z,100258.63
2023-03-03T06:01:39.165Z,100261.66
2023-03-03T06:06:42.246Z,100260.09
2023-03-03T06:11:45.312Z,100264.41
2023-03-03T06:16:48.881Z,100265.19
2023-03-03T06:21:51.844Z,100268.38
2023-03-03T06:26:55.820Z,100273.16
2023-03-03T06:31:58.922Z,100271.66
2023-03-03T06:37:02.258Z,100282.06
2023-03-03T06:42:05.386Z,100279.66
2023-03-03T06:47:08.640Z,100282.06
2023-03-03T06:52:27.744Z,100276.63
2023-03-03T06:57:34.464Z,100272.13
2023-03-03T07:02:37.289Z,100269.44
2023-03-03T07:07:40.169Z,100270.25
2023-03-03T07:12:43.019Z,100273.25
2023-03-03T07:17:51.204Z,100278.25
2023-03-03T07:22:54.370Z,100287.41
2023-03-03T07:28:12.327Z,100296.34
2023-03-03T07:33:41.103Z,100292.53
2023-03-03T07:39:01.166Z,100281.34
2023-03-03T07:44:21.300Z,100279.53
2023-03-03T07:49:37.437Z,100272.84
2023-03-03T07:54:43.599Z,100280.81
2023-03-03T08:00:02.453Z,100274.00
2023-03-03T08:05:31.425Z,100269.91
2023-03-03T08:10:53.246Z,100272.81
2023-03-03T08:16:22.164Z,100261.75
2023-03-03T08:21:26.748Z,100265.69
2023-03-03T08:26:29.732Z,100270.00
2023-03-03T08:31:41.377Z,100277.75
2023-03-03T08:36:44.922Z,100271.09
2023-03-03T08:41:47.976Z,100275.28
2023-03-03T08:46:50.978Z,100269.53
2023-03-03T08:51:54.657Z,100263.41
2023-03-03T08:56:57.666Z,100254.03
2023-03-03T09:02:00.724Z,100249.22
2023-03-03T09:07:03.599Z,100239.06
2023-03-03T09:12:22.612Z,100235.63
2023-03-03T09:17:37.615Z,100224.84
2023-03-03T09:22:40.734Z,100217.25
2023-03-03T09:27:43.517Z,100219.56
2023-03-03T09:32:46.241Z,100210.69
2023-03-03T09:37:52.629Z,100198.09
2023-03-03T09:43:26.371Z,100206.97
2023-03-03T09:48:47.750Z,100194.69
2023-03-03T09:54:18.297Z,100194.31
2023-03-03T09:59:44.079Z,100199.63
2023-03-03T10:05:15.293Z,100203.81
2023-03-03T10:10:49.158Z,100198.09
2023-03-03T10:16:19.372Z,100212.06
2023-03-03T10:21:50.624Z,100202.16
2023-03-03T10:27:12.368Z,100200.47
2023-03-03T10:32:41.399Z,100188.38
2023-03-03T10:38:15.372Z,100179.16
2023-03-03T10:44:18.455Z,100165.56
2023-03-03T10:50:21.507Z,100155.88
2023-03-03T10:55:53.177Z,100156.81
2023-03-03T11:01:31.024Z,100149.28
2023-03-03T11:07:16.381Z,100153.53
2023-03-03T11:12:35.173Z,100137.72
2023-03-03T11:17:49.945Z,100137.25
2023-03-03T11:23:07.291Z,100132.44
2023-03-03T11:28:44.396Z,100126.47
2023-03-03T11:33:53.155Z,100120.69
2023-03-03T11:39:00.240Z,100115.88
2023-03-03T11:44:06.096Z,100120.84
2023-03-03T11:49:18.982Z,100122.19
2023-03-03T11:54:56.391Z,100105.66
2023-03-03T12:00:17.830Z,100105.56
2023-03-03T12:06:05.278Z,100095.41
2023-03-03T12:11:43.196Z,100093.84
2023-03-03T12:17:15.737Z,100083.88
2023-03-03T12:22:33.597Z,100076.81
2023-03-03T12:28:05.644Z,100071.66
2023-03-03T12:33:31.077Z,100082.69
2023-03-03T12:39:25.326Z,100072.09
2023-03-03T12:45:11.387Z,100065.50
2023-03-03T12:50:48.018Z,100076.09
2023-03-03T12:56:00.453Z,100067.69
2023-03-03T13:01:36.822Z,100063.84
2023-03-03T13:07:25.246Z,100064.03
2023-03-03T13:12:42.157Z,100063.91
2023-03-03T13:17:54.246Z,100063.31
2023-03-03T13:23:31.850Z,100056.41
2023-03-03T13:28:58.491Z,100052.81
2023-03-03T13:34:02.659Z,100053.13
2023-03-03T13:39:22.637Z,100054.97
2023-03-03T13:44:39.047Z,100052.13
2023-03-03T13:50:07.940Z,100052.38
2023-03-03T13:55:44.672Z,100056.88
2023-03-03T14:01:02.501Z,100060.53
2023-03-03T14:06:15.252Z,100049.66
2023-03-03T14:12:20.187Z,100037.47
2023-03-03T14:17:58.165Z,100032.09
2023-03-03T14:23:33.897Z,100035.69
2023-03-03T14:29:35.612Z,100046.72
2023-03-03T14:34:41.543Z,100047.47
2023-03-03T14:39:49.002Z,100042.34
2023-03-03T14:44:56.416Z,100039.88
2023-03-03T14:50:03.582Z,100039.38
2023-03-03T14:55:38.827Z,100042.78
2023-03-03T15:00:41.789Z,100043.97
2023-03-03T15:05:57.879Z,100038.88
2023-03-03T15:11:17.418Z,100043.69
2023-03-03T15:16:31.947Z,100050.16
2023-03-03T15:21:40.662Z,100042.22
2023-03-03T15:27:00.339Z,100039.72
2023-03-03T15:32:44.765Z,100043.19
2023-03-03T15:38:22.505Z,100043.72
2023-03-03T15:43:35.188Z,100051.38
2023-03-03T15:48:57.151Z,100052.38
2023-03-03T15:54:25.379Z,100062.66
2023-03-03T15:59:51.133Z,100057.63
2023-03-03T16:05:22.704Z,100069.81
2023-03-03T16:11:06.762Z,100065.56
2023-03-03T16:16:37.067Z,100075.19
2023-03-03T16:22:24.669Z,100079.81
2023-03-03T16:28:08.765Z,100085.53
2023-03-03T16:33:44.035Z,100089.47
2023-03-03T16:39:31.987Z,100092.28
2023-03-03T16:44:43.237Z,100098.38
2023-03-03T16:49:59.460Z,100098.03
2023-03-03T16:55:32.636Z,100103.56
2023-03-03T17:01:08.839Z,100112.44
2023-03-03T17:06:48.365Z,100118.31
2023-03-03T17:12:26.907Z,100124.06
2023-03-03T17:17:54.358Z,100123.97
2023-03-03T17:23:43.233Z,100128.53
2023-03-03T17:29:18.521Z,100125.28
2023-03-03T17:35:20.311Z,100130.75
2023-03-03T17:41:07.516Z,100132.59
2023-03-03T17:46:31.388Z,100131.59
2023-03-03T17:57:59.348Z,100136.91
2023-03-03T18:03:15.787Z,100134.19
2023-03-03T18:08:47.064Z,100130.16
2023-03-03T18:14:15.967Z,100130.25
2023-03-03T18:19:50.495Z,100125.78
2023-03-03T18:24:55.192Z,100126.84
2023-03-03T18:30:51.956Z,100129.84
2023-03-03T18:36:36.590Z,100123.50
2023-03-03T18:42:15.660Z,100126.44
2023-03-03T18:47:21.330Z,100112.84
2023-03-03T18:52:31.821Z,100125.19
2023-03-03T18:57:35.827Z,100123.66
2023-03-03T19:02:49.691Z,100115.22
2023-03-03T19:08:18.760Z,100124.22
2023-03-03T19:13:33.725Z,100130.91
2023-03-03T19:18:42.584Z,100133.38
2023-03-03T19:23:59.955Z,100141.44
2023-03-03T19:29:27.871Z,100141.16
2023-03-03T19:35:01.744Z,100141.53
2023-03-03T19:41:09.738Z,100149.97
2023-03-03T19:47:19.026Z,100153.94
2023-03-03T19:53:06.136Z,100153.44
2023-03-03T19:58:23.281Z,100154.94
2023-03-03T20:03:54.703Z,100154.97
2023-03-03T20:09:16.270Z,100163.94
2023-03-03T20:15:02.329Z,100177.81
2023-03-03T20:20:36.534Z,100173.47
2023-03-03T20:26:14.808Z,100174.94
2023-03-03T20:31:48.025Z,100175.56
2023-03-03T20:37:10.399Z,100168.41
2023-03-03T20:42:56.203Z,100174.47
2023-03-03T20:48:40.858Z,100180.66
2023-03-03T20:54:38.406Z,100184.03
2023-03-03T21:00:22.741Z,100178.88
2023-03-03T21:05:26.394Z,100183.41
2023-03-03T21:10:36.128Z,100181.53
2023-03-03T21:15:39.894Z,100180.03
2023-03-03T21:20:42.626Z,100177.66
2023-03-03T21:25:54.563Z,100181.13
2023-03-03T21:31:18.025Z,100184.06
2023-03-03T21:36:31.931Z,100185.75
2023-03-03T21:42:14.499Z,100189.38
2023-03-03T21:47:19.958Z,100182.78
2023-03-03T21:52:23.040Z,100185.66
2023-03-03T21:57:25.943Z,100190.28
2023-03-03T22:02:29.109Z,100190.72
2023-03-03T22:07:32.257Z,100201.06
2023-03-03T22:12:35.316Z,100197.75
2023-03-03T22:17:38.476Z,100199.72
2023-03-03T22:22:42.244Z,100205.44
2023-03-03T22:27:45.175Z,100207.22
2023-03-03T22:32:52.320Z,100201.91
2023-03-03T22:37:55.220Z,100219.91
2023-03-03T22:42:59.186Z,100211.97
2023-03-03T22:48:02.233Z,100211.44
2023-03-03T22:53:08.058Z,100208.00
2023-03-03T22:58:12.207Z,100206.75
2023-03-03T23:03:16.261Z,100211.88
2023-03-03T23:08:20.530Z,100212.28
2023-03-03T23:13:25.198Z,100205.19
2023-03-03T23:18:28.790Z,100209.34
2023-03-03T23:23:32.364Z,100206.72
2023-03-03T23:28:35.549Z,100193.84
2023-03-03T23:33:38.575Z,100198.81
2023-03-03T23:38:43.194Z,100197.75
2023-03-03T23:43:46.373Z,100194.75
2023-03-03T23:48:49.448Z,100198.56
2023-03-03T23:53:52.481Z,100198.91
2023-03-03T23:58:55.623Z,100202.06
